createdAt,value
2023-05-13T00:01:09.286Z,66.70
2023-05-13T00:03:36.543Z,66.76
2023-05-13T00:06:03.319Z,66.98
2023-05-13T00:08:30.099Z,67.10
2023-05-13T00:10:56.583Z,67.66
2023-05-13T00:13:23.289Z,68.16
2023-05-13T00:15:49.749Z,68.82
2023-05-13T00:18:16.663Z,69.59
2023-05-13T00:20:43.088Z,69.41
2023-05-13T00:23:09.953Z,69.34
2023-05-13T00:25:37.168Z,69.70
2023-05-13T00:28:04.779Z,69.17
2023-05-13T00:30:31.529Z,69.34
2023-05-13T00:32:58.546Z,69.38
2023-05-13T00:35:25.094Z,69.37
2023-05-13T00:37:52.058Z,69.90
2023-05-13T00:40:24.307Z,70.16
2023-05-13T00:42:51.706Z,70.46
2023-05-13T00:45:19.004Z,70.23
2023-05-13T00:47:45.940Z,70.42
2023-05-13T00:50:14.174Z,69.67
2023-05-13T00:52:42.222Z,69.60
2023-05-13T00:55:12.156Z,69.73
2023-05-13T00:57:40.293Z,69.99
2023-05-13T01:00:07.899Z,69.64
2023-05-13T01:03:08.748Z,69.91
2023-05-13T01:05:44.380Z,70.25
2023-05-13T01:08:32.114Z,70.67
2023-05-13T01:11:03.946Z,70.76
2023-05-13T01:13:42.929Z,70.43
2023-05-13T01:16:27.903Z,70.99
2023-05-13T01:18:58.716Z,71.22
2023-05-13T01:21:29.611Z,71.05
2023-05-13T01:23:56.295Z,70.85
2023-05-13T01:26:25.269Z,71.19
2023-05-13T01:28:52.736Z,71.55
2023-05-13T01:31:21.811Z,71.85
2023-05-13T01:33:49.401Z,71.54
2023-05-13T01:36:17.270Z,71.46
2023-05-13T01:38:45.004Z,71.00
2023-05-13T01:41:11.951Z,71.44
2023-05-13T01:43:38.461Z,71.46
2023-05-13T01:46:12.314Z,71.47
2023-05-13T01:48:39.151Z,71.38
2023-05-13T01:51:05.943Z,70.64
2023-05-13T01:53:32.479Z,71.57
2023-05-13T01:55:59.145Z,71.58
2023-05-13T01:58:25.933Z,71.35
2023-05-13T02:00:52.370Z,71.53
2023-05-13T02:03:19.220Z,71.41
2023-05-13T02:05:47.419Z,71.89
2023-05-13T02:08:14.156Z,71.53
2023-05-13T02:10:40.785Z,71.58
2023-05-13T02:13:07.381Z,71.39
2023-05-13T02:15:33.781Z,71.69
2023-05-13T02:18:00.491Z,71.91
2023-05-13T02:20:28.083Z,72.22
2023-05-13T02:22:55.125Z,72.28
2023-05-13T02:25:21.557Z,72.68
2023-05-13T02:27:48.261Z,71.99
2023-05-13T02:30:14.783Z,71.91
2023-05-13T02:32:43.874Z,72.07
2023-05-13T02:35:10.930Z,72.34
2023-05-13T02:37:37.473Z,71.98
2023-05-13T02:40:04.976Z,72.06
2023-05-13T02:42:31.455Z,72.79
2023-05-13T02:44:58.631Z,72.45
2023-05-13T02:47:26.318Z,72.31
2023-05-13T02:49:54.939Z,72.31
2023-05-13T02:52:22.211Z,72.70
2023-05-13T02:54:49.136Z,72.50
2023-05-13T02:57:16.224Z,72.34
2023-05-13T02:59:43.386Z,72.25
2023-05-13T03:02:11.004Z,72.72
2023-05-13T03:04:37.918Z,72.65
2023-05-13T03:07:04.566Z,73.25
2023-05-13T03:09:31.610Z,72.72
2023-05-13T03:11:58.415Z,73.09
2023-05-13T03:14:25.245Z,72.94
2023-05-13T03:16:51.838Z,73.20
2023-05-13T03:19:18.527Z,73.12
2023-05-13T03:21:45.475Z,73.28
2023-05-13T03:24:15.031Z,73.73
2023-05-13T03:26:41.490Z,73.89
2023-05-13T03:29:08.718Z,73.52
2023-05-13T03:31:37.103Z,73.91
2023-05-13T03:34:04.904Z,73.65
2023-05-13T03:36:32.577Z,73.96
2023-05-13T03:38:59.647Z,73.45
2023-05-13T03:41:28.232Z,73.95
2023-05-13T03:43:57.296Z,73.46
2023-05-13T03:46:24.033Z,74.09
2023-05-13T03:48:50.664Z,74.08
2023-05-13T03:51:17.704Z,74.07
2023-05-13T03:53:44.762Z,74.28
2023-05-13T03:56:11.287Z,74.49
2023-05-13T03:58:38.377Z,74.40
2023-05-13T04:01:05.409Z,74.92
2023-05-13T04:03:32.995Z,74.74
2023-05-13T04:05:59.991Z,75.60
2023-05-13T04:08:27.032Z,75.79
2023-05-13T04:10:54.497Z,75.35
2023-05-13T04:13:21.160Z,74.98
2023-05-13T04:15:48.378Z,75.19
2023-05-13T04:18:14.798Z,75.00
2023-05-13T04:20:41.520Z,74.91
2023-05-13T04:23:08.204Z,75.69
2023-05-13T04:25:36.516Z,75.11
2023-05-13T04:28:03.705Z,75.74
2023-05-13T04:30:38.779Z,75.83
2023-05-13T04:33:05.443Z,75.85
2023-05-13T04:35:33.295Z,75.21
2023-05-13T04:38:02.040Z,74.76
2023-05-13T04:40:29.346Z,75.48
2023-05-13T04:42:59.408Z,75.01
2023-05-13T04:45:31.682Z,75.45
2023-05-13T04:47:58.968Z,75.59
2023-05-13T04:50:25.958Z,75.32
2023-05-13T04:52:54.879Z,75.76
2023-05-13T04:55:22.883Z,75.13
2023-05-13T04:57:49.882Z,75.12
2023-05-13T05:00:17.178Z,75.38
2023-05-13T05:02:45.756Z,74.83
2023-05-13T05:05:12.236Z,75.06
2023-05-13T05:07:40.573Z,74.55
2023-05-13T05:10:08.510Z,74.46
2023-05-13T05:12:38.283Z,74.44
2023-05-13T05:15:06.120Z,74.29
2023-05-13T05:17:33.931Z,74.03
2023-05-13T05:20:02.327Z,73.11
2023-05-13T05:22:29.255Z,73.42
2023-05-13T05:24:56.548Z,73.04
2023-05-13T05:27:24.758Z,72.28
2023-05-13T05:29:51.190Z,72.38
2023-05-13T05:32:17.995Z,72.78
2023-05-13T05:34:44.465Z,72.84
2023-05-13T05:37:11.005Z,72.54
2023-05-13T05:39:38.700Z,72.25
2023-05-13T05:42:05.684Z,72.21
2023-05-13T05:44:32.309Z,71.85
2023-05-13T05:46:58.740Z,71.27
2023-05-13T05:49:26.069Z,71.85
2023-05-13T05:51:52.611Z,71.77
2023-05-13T05:54:20.478Z,71.61
2023-05-13T05:56:47.994Z,70.91
2023-05-13T05:59:14.812Z,70.48
2023-05-13T06:01:41.371Z,70.29
2023-05-13T06:04:07.985Z,69.42
2023-05-13T06:06:34.945Z,69.84
2023-05-13T06:09:01.786Z,69.49
2023-05-13T06:11:28.255Z,69.70
2023-05-13T06:13:54.827Z,69.91
2023-05-13T06:16:21.350Z,68.75
2023-05-13T06:18:48.135Z,70.69
2023-05-13T06:21:14.878Z,69.71
2023-05-13T06:23:42.154Z,68.72
2023-05-13T06:26:08.576Z,68.62
2023-05-13T06:28:35.398Z,67.80
2023-05-13T06:31:02.071Z,67.66
2023-05-13T06:33:29.481Z,66.38
2023-05-13T06:35:55.978Z,66.19
2023-05-13T06:38:24.061Z,66.00
2023-05-13T06:40:55.488Z,65.86
2023-05-13T06:43:28.646Z,65.44
2023-05-13T06:45:58.119Z,65.06
2023-05-13T06:48:26.269Z,66.37
2023-05-13T06:50:52.745Z,65.22
2023-05-13T06:53:19.412Z,62.98
2023-05-13T06:55:46.109Z,62.88
2023-05-13T06:58:12.633Z,62.63
2023-05-13T07:00:40.516Z,63.86
2023-05-13T07:03:08.066Z,61.53
2023-05-13T07:05:35.162Z,62.79
2023-05-13T07:08:06.522Z,62.26
2023-05-13T07:10:33.959Z,61.24
2023-05-13T07:13:02.220Z,60.00
2023-05-13T07:15:28.851Z,59.38
2023-05-13T07:17:55.624Z,57.55
2023-05-13T07:20:23.176Z,58.07
2023-05-13T07:22:50.181Z,58.65
2023-05-13T07:25:17.614Z,58.07
2023-05-13T07:27:44.899Z,54.90
2023-05-13T07:30:12.455Z,54.54
2023-05-13T07:32:39.839Z,56.47
2023-05-13T07:35:07.576Z,56.72
2023-05-13T07:37:34.164Z,56.55
2023-05-13T07:40:00.595Z,54.19
2023-05-13T07:42:28.295Z,56.01
2023-05-13T07:44:54.715Z,56.78
2023-05-13T07:47:21.515Z,53.56
2023-05-13T07:49:49.096Z,54.91
2023-05-13T07:52:15.973Z,52.58
2023-05-13T07:54:42.457Z,52.50
2023-05-13T07:57:08.963Z,52.07
2023-05-13T07:59:35.383Z,52.09
2023-05-13T08:02:02.330Z,52.37
2023-05-13T08:04:28.777Z,52.97
2023-05-13T08:06:56.151Z,51.93
2023-05-13T08:09:22.584Z,52.39
2023-05-13T08:11:49.215Z,49.22
2023-05-13T08:14:15.755Z,52.13
2023-05-13T08:16:42.369Z,48.48
2023-05-13T08:19:09.673Z,49.33
2023-05-13T08:21:36.396Z,49.49
2023-05-13T08:24:02.932Z,49.76
2023-05-13T08:26:29.515Z,50.74
2023-05-13T08:28:57.133Z,46.95
2023-05-13T08:31:25.181Z,47.82
2023-05-13T08:33:53.219Z,47.25
2023-05-13T08:36:20.606Z,47.47
2023-05-13T08:38:47.360Z,45.81
2023-05-13T08:41:14.962Z,47.25
2023-05-13T08:43:44.405Z,45.80
2023-05-13T08:46:12.451Z,45.32
2023-05-13T08:48:40.784Z,43.87
2023-05-13T08:51:07.900Z,45.47
2023-05-13T08:53:35.386Z,43.43
2023-05-13T08:56:02.539Z,40.12
2023-05-13T08:58:29.141Z,39.70
2023-05-13T09:00:56.550Z,41.55
2023-05-13T09:03:23.103Z,41.90
2023-05-13T09:05:49.635Z,40.47
2023-05-13T09:08:16.294Z,39.70
2023-05-13T09:10:42.967Z,41.41
2023-05-13T09:13:11.916Z,40.88
2023-05-13T09:15:42.753Z,38.97
2023-05-13T09:18:09.408Z,39.47
2023-05-13T09:20:36.580Z,39.65
2023-05-13T09:23:08.220Z,37.29
2023-05-13T09:25:36.512Z,38.08
2023-05-13T09:28:04.867Z,40.57
2023-05-13T09:30:43.284Z,39.10
2023-05-13T09:33:14.120Z,39.44
2023-05-13T09:35:42.402Z,39.64
2023-05-13T09:38:24.813Z,38.82
2023-05-13T09:40:58.523Z,40.58
2023-05-13T09:43:27.223Z,38.06
2023-05-13T09:46:00.737Z,38.23
2023-05-13T09:48:29.968Z,41.74
2023-05-13T09:50:58.137Z,40.64
2023-05-13T09:53:26.354Z,37.94
2023-05-13T09:55:55.604Z,39.00
2023-05-13T09:58:26.356Z,38.13
2023-05-13T10:00:52.971Z,39.89
2023-05-13T10:03:19.667Z,36.39
2023-05-13T10:05:46.439Z,35.02
2023-05-13T10:08:15.455Z,38.22
2023-05-13T10:10:45.609Z,35.31
2023-05-13T10:13:18.865Z,37.45
2023-05-13T10:15:49.995Z,35.68
2023-05-13T10:18:17.653Z,37.30
2023-05-13T10:20:44.750Z,35.44
2023-05-13T10:23:12.028Z,35.20
2023-05-13T10:25:38.829Z,35.02
2023-05-13T10:28:05.879Z,35.92
2023-05-13T10:30:33.646Z,33.05
2023-05-13T10:33:01.402Z,33.47
2023-05-13T10:35:33.929Z,33.46
2023-05-13T10:38:24.006Z,36.08
2023-05-13T10:41:23.905Z,34.17
2023-05-13T10:43:57.613Z,32.78
2023-05-13T10:46:24.168Z,37.10
2023-05-13T10:48:55.925Z,31.98
2023-05-13T10:51:25.862Z,33.67
2023-05-13T10:53:58.419Z,33.32
2023-05-13T10:56:28.287Z,32.24
2023-05-13T10:59:05.608Z,31.72
2023-05-13T11:01:43.893Z,31.99
2023-05-13T11:04:18.445Z,29.44
2023-05-13T11:06:46.900Z,32.68
2023-05-13T11:09:15.961Z,30.94
2023-05-13T11:11:47.407Z,33.06
2023-05-13T11:14:17.669Z,30.05
2023-05-13T11:17:02.214Z,32.11
2023-05-13T11:19:34.954Z,30.84
2023-05-13T11:22:12.546Z,30.26
2023-05-13T11:24:40.474Z,32.19
2023-05-13T11:27:20.968Z,29.10
2023-05-13T11:29:52.357Z,27.07
2023-05-13T11:32:53.322Z,28.06
2023-05-13T11:35:25.145Z,27.44
2023-05-13T11:37:51.806Z,28.61
2023-05-13T11:40:23.538Z,28.02
2023-05-13T11:42:50.639Z,30.30
2023-05-13T11:45:18.506Z,27.59
2023-05-13T11:47:45.160Z,27.81
2023-05-13T11:50:22.104Z,28.32
2023-05-13T11:52:57.497Z,27.99
2023-05-13T11:55:37.848Z,29.46
2023-05-13T11:58:04.329Z,27.67
2023-05-13T12:00:33.362Z,27.41
2023-05-13T12:03:01.448Z,27.86
2023-05-13T12:05:28.684Z,25.42
2023-05-13T12:07:58.911Z,23.88
2023-05-13T12:10:26.310Z,26.34
2023-05-13T12:12:53.358Z,24.86
2023-05-13T12:15:22.112Z,26.33
2023-05-13T12:17:49.507Z,24.81
2023-05-13T12:20:21.026Z,25.02
2023-05-13T12:22:48.094Z,26.14
2023-05-13T12:25:42.661Z,23.48
2023-05-13T12:28:25.245Z,23.91
2023-05-13T12:30:59.669Z,24.89
2023-05-13T12:33:28.860Z,24.78
2023-05-13T12:36:15.132Z,24.02
2023-05-13T12:38:59.607Z,24.08
2023-05-13T12:41:35.089Z,25.44
2023-05-13T12:44:08.868Z,29.48
2023-05-13T12:46:36.206Z,26.50
2023-05-13T12:49:04.347Z,24.87
2023-05-13T12:51:31.634Z,24.58
2023-05-13T12:53:58.258Z,25.23
2023-05-13T12:56:25.720Z,25.80
2023-05-13T12:58:55.849Z,23.93
2023-05-13T13:01:22.609Z,25.56
2023-05-13T13:03:49.358Z,28.04
2023-05-13T13:06:16.507Z,27.45
2023-05-13T13:08:42.934Z,28.07
2023-05-13T13:11:09.811Z,28.75
2023-05-13T13:13:38.709Z,30.09
2023-05-13T13:16:06.415Z,28.59
2023-05-13T13:18:33.093Z,28.44
2023-05-13T13:20:59.726Z,29.34
2023-05-13T13:23:26.138Z,30.96
2023-05-13T13:25:52.827Z,28.47
2023-05-13T13:28:19.479Z,27.34
2023-05-13T13:30:48.547Z,24.07
2023-05-13T13:33:16.197Z,25.49
2023-05-13T13:35:43.872Z,26.21
2023-05-13T13:38:11.074Z,22.15
2023-05-13T13:40:37.488Z,25.26
2023-05-13T13:43:05.672Z,22.52
2023-05-13T13:45:32.192Z,22.42
2023-05-13T13:47:59.490Z,21.57
2023-05-13T13:50:26.643Z,22.38
2023-05-13T13:52:53.260Z,23.91
2023-05-13T13:55:21.054Z,23.81
2023-05-13T13:57:47.753Z,20.95
2023-05-13T14:00:15.651Z,21.30
2023-05-13T14:02:43.602Z,22.80
2023-05-13T14:05:11.590Z,20.99
2023-05-13T14:07:38.187Z,22.44
2023-05-13T14:10:06.312Z,23.63
2023-05-13T14:12:33.719Z,21.19
2023-05-13T14:15:00.383Z,20.33
2023-05-13T14:17:27.035Z,20.65
2023-05-13T14:19:55.117Z,21.50
2023-05-13T14:22:23.681Z,19.51
2023-05-13T14:24:52.489Z,20.73
2023-05-13T14:27:19.684Z,19.78
2023-05-13T14:29:47.684Z,21.01
2023-05-13T14:32:14.825Z,19.43
2023-05-13T14:34:41.413Z,21.22
2023-05-13T14:37:07.967Z,20.39
2023-05-13T14:39:34.400Z,21.41
2023-05-13T14:42:01.661Z,22.53
2023-05-13T14:44:28.171Z,24.52
2023-05-13T14:46:54.953Z,23.67
2023-05-13T14:49:21.546Z,24.89
2023-05-13T14:51:48.014Z,25.93
2023-05-13T14:54:14.640Z,26.18
2023-05-13T14:56:41.439Z,26.25
2023-05-13T14:59:08.317Z,23.45
2023-05-13T15:01:34.781Z,23.58
2023-05-13T15:04:01.323Z,23.49
2023-05-13T15:06:29.045Z,24.12
2023-05-13T15:08:56.325Z,21.14
2023-05-13T15:11:23.240Z,23.01
2023-05-13T15:13:49.775Z,22.78
2023-05-13T15:16:16.312Z,22.77
2023-05-13T15:18:43.167Z,25.08
2023-05-13T15:21:09.650Z,24.02
2023-05-13T15:23:36.283Z,25.03
2023-05-13T15:26:02.803Z,24.01
2023-05-13T15:28:29.285Z,21.87
2023-05-13T15:30:56.160Z,21.56
2023-05-13T15:33:22.776Z,20.06
2023-05-13T15:35:49.317Z,21.17
2023-05-13T15:38:15.877Z,21.21
2023-05-13T15:40:42.330Z,21.67
2023-05-13T15:43:08.764Z,21.30
2023-05-13T15:45:35.516Z,21.07
2023-05-13T15:48:02.101Z,22.40
2023-05-13T15:50:28.995Z,22.72
2023-05-13T15:52:55.551Z,22.74
2023-05-13T15:55:22.148Z,23.33
2023-05-13T15:57:50.175Z,24.35
2023-05-13T16:00:17.726Z,24.81
2023-05-13T16:02:44.346Z,24.25
2023-05-13T16:05:15.688Z,23.31
2023-05-13T16:07:42.577Z,24.08
2023-05-13T16:10:09.381Z,24.67
2023-05-13T16:12:36.146Z,23.45
2023-05-13T16:15:03.985Z,22.13
2023-05-13T16:17:31.549Z,22.93
2023-05-13T16:19:58.077Z,23.05
2023-05-13T16:22:37.655Z,23.63
2023-05-13T16:25:06.144Z,23.06
2023-05-13T16:27:33.946Z,22.86
2023-05-13T16:30:02.394Z,22.07
2023-05-13T16:32:29.362Z,21.26
2023-05-13T16:34:56.672Z,21.25
2023-05-13T16:37:23.103Z,21.49
2023-05-13T16:39:49.656Z,20.59
2023-05-13T16:42:16.112Z,20.82
2023-05-13T16:44:42.900Z,20.55
2023-05-13T16:47:09.333Z,19.88
2023-05-13T16:49:36.642Z,21.87
2023-05-13T16:52:04.028Z,21.29
2023-05-13T16:54:30.989Z,22.25
2023-05-13T16:56:58.070Z,22.68
2023-05-13T16:59:27.108Z,22.25
2023-05-13T17:01:53.765Z,23.98
2023-05-13T17:04:21.123Z,25.06
2023-05-13T17:06:47.695Z,23.31
2023-05-13T17:09:14.170Z,23.66
2023-05-13T17:11:40.610Z,23.69
2023-05-13T17:14:07.198Z,24.53
2023-05-13T17:16:33.690Z,25.11
2023-05-13T17:19:00.319Z,24.72
2023-05-13T17:21:26.864Z,24.40
2023-05-13T17:23:53.538Z,25.55
2023-05-13T17:26:21.801Z,26.21
2023-05-13T17:28:49.744Z,25.84
2023-05-13T17:31:16.672Z,24.36
2023-05-13T17:33:43.698Z,24.61
2023-05-13T17:36:10.729Z,24.26
2023-05-13T17:38:37.877Z,25.41
2023-05-13T17:41:04.741Z,25.88
2023-05-13T17:43:31.294Z,24.66
2023-05-13T17:45:57.776Z,26.46
2023-05-13T17:48:24.347Z,26.57
2023-05-13T17:50:51.621Z,28.38
2023-05-13T17:53:18.833Z,27.16
2023-05-13T17:55:45.355Z,30.99
2023-05-13T17:58:12.312Z,26.93
2023-05-13T18:00:38.821Z,27.34
2023-05-13T18:03:05.357Z,27.76
2023-05-13T18:05:31.936Z,32.78
2023-05-13T18:07:59.077Z,29.44
2023-05-13T18:10:27.321Z,29.83
2023-05-13T18:12:53.771Z,30.63
2023-05-13T18:15:20.326Z,30.15
2023-05-13T18:17:47.358Z,28.81
2023-05-13T18:20:13.873Z,30.71
2023-05-13T18:22:40.385Z,31.44
2023-05-13T18:25:07.684Z,32.69
2023-05-13T18:27:34.233Z,32.83
2023-05-13T18:30:00.847Z,32.88
2023-05-13T18:32:27.370Z,34.48
2023-05-13T18:34:54.030Z,34.37
2023-05-13T18:37:20.479Z,34.84
2023-05-13T18:39:47.043Z,34.96
2023-05-13T18:42:13.521Z,36.74
2023-05-13T18:44:40.147Z,36.10
2023-05-13T18:47:07.090Z,37.04
2023-05-13T18:49:33.736Z,37.45
2023-05-13T18:52:00.190Z,37.49
2023-05-13T18:54:29.136Z,38.53
2023-05-13T18:56:58.738Z,37.73
2023-05-13T18:59:25.310Z,38.64
2023-05-13T19:01:51.966Z,39.19
2023-05-13T19:04:18.552Z,37.57
2023-05-13T19:06:45.133Z,38.21
2023-05-13T19:09:11.696Z,36.98
2023-05-13T19:11:38.223Z,37.46
2023-05-13T19:14:04.914Z,38.58
2023-05-13T19:16:31.532Z,36.87
2023-05-13T19:18:58.131Z,39.06
2023-05-13T19:21:24.563Z,39.32
2023-05-13T19:23:51.305Z,39.21
2023-05-13T19:26:17.839Z,39.74
2023-05-13T19:28:44.886Z,39.66
2023-05-13T19:31:11.497Z,40.65
2023-05-13T19:33:38.238Z,40.42
2023-05-13T19:36:05.899Z,41.30
2023-05-13T19:38:33.071Z,41.15
2023-05-13T19:40:59.561Z,41.38
2023-05-13T19:43:26.197Z,41.78
2023-05-13T19:45:55.329Z,42.27
2023-05-13T19:48:21.966Z,42.10
2023-05-13T19:50:48.385Z,41.93
2023-05-13T19:53:15.337Z,41.79
2023-05-13T19:55:41.765Z,42.43
2023-05-13T19:58:08.473Z,43.60
2023-05-13T20:00:34.879Z,44.03
2023-05-13T20:03:01.606Z,43.98
2023-05-13T20:05:28.137Z,43.88
2023-05-13T20:07:54.598Z,43.81
2023-05-13T20:10:21.176Z,44.38
2023-05-13T20:12:47.828Z,44.42
2023-05-13T20:15:15.274Z,45.15
2023-05-13T20:17:42.843Z,44.43
2023-05-13T20:20:09.738Z,45.67
2023-05-13T20:22:36.497Z,45.03
2023-05-13T20:25:02.931Z,45.10
2023-05-13T20:27:29.404Z,45.80
2023-05-13T20:29:57.014Z,46.29
2023-05-13T20:32:25.033Z,45.21
2023-05-13T20:34:52.495Z,45.80
2023-05-13T20:37:20.106Z,46.19
2023-05-13T20:39:48.321Z,45.88
2023-05-13T20:42:14.726Z,46.28
2023-05-13T20:44:41.553Z,46.97
2023-05-13T20:47:08.192Z,47.36
2023-05-13T20:49:34.774Z,46.60
2023-05-13T20:52:06.342Z,47.31
2023-05-13T20:54:34.284Z,48.02
2023-05-13T20:57:02.888Z,47.46
2023-05-13T20:59:30.099Z,47.73
2023-05-13T21:01:56.702Z,48.12
2023-05-13T21:04:23.438Z,48.43
2023-05-13T21:06:49.864Z,48.60
2023-05-13T21:09:16.560Z,49.10
2023-05-13T21:11:43.291Z,49.12
2023-05-13T21:14:09.827Z,49.84
2023-05-13T21:16:36.305Z,50.10
2023-05-13T21:19:03.005Z,50.24
2023-05-13T21:21:29.555Z,50.23
2023-05-13T21:23:56.132Z,50.79
2023-05-13T21:26:24.472Z,50.54
2023-05-13T21:28:51.185Z,50.97
2023-05-13T21:31:17.625Z,51.06
2023-05-13T21:33:44.116Z,50.97
2023-05-13T21:36:10.517Z,51.94
2023-05-13T21:38:37.142Z,51.93
2023-05-13T21:41:03.629Z,52.47
2023-05-13T21:43:30.266Z,52.35
2023-05-13T21:45:56.703Z,52.44
2023-05-13T21:48:23.309Z,52.82
2023-05-13T21:50:49.749Z,53.10
2023-05-13T21:53:16.434Z,53.18
2023-05-13T21:55:43.943Z,53.48
2023-05-13T21:58:10.583Z,53.73
2023-05-13T22:00:37.158Z,53.75
2023-05-13T22:03:06.099Z,54.18
2023-05-13T22:05:32.715Z,54.62
2023-05-13T22:08:00.159Z,54.70
2023-05-13T22:10:26.800Z,54.50
2023-05-13T22:12:53.587Z,55.24
2023-05-13T22:15:19.980Z,55.53
2023-05-13T22:17:49.096Z,56.04
2023-05-13T22:20:16.893Z,56.33
2023-05-13T22:22:43.564Z,55.95
2023-05-13T22:25:10.023Z,55.83
2023-05-13T22:27:36.493Z,55.46
2023-05-13T22:30:03.087Z,55.49
2023-05-13T22:32:29.869Z,56.35
2023-05-13T22:34:56.376Z,56.77
2023-05-13T22:37:22.981Z,57.16
2023-05-13T22:39:49.420Z,57.36
2023-05-13T22:42:15.991Z,58.07
2023-05-13T22:44:42.534Z,57.68
2023-05-13T22:47:08.980Z,58.82
2023-05-13T22:49:35.476Z,57.89
2023-05-13T22:52:01.920Z,58.97
2023-05-13T22:54:28.560Z,59.35
2023-05-13T22:56:55.065Z,59.50
2023-05-13T22:59:21.698Z,58.86
2023-05-13T23:01:48.201Z,59.77
2023-05-13T23:04:14.924Z,60.27
2023-05-13T23:06:41.496Z,60.11
2023-05-13T23:09:08.025Z,60.23
2023-05-13T23:11:36.039Z,60.31
2023-05-13T23:14:02.758Z,61.18
2023-05-13T23:16:29.237Z,61.17
2023-05-13T23:18:56.057Z,62.05
2023-05-13T23:21:22.571Z,62.05
2023-05-13T23:23:50.170Z,62.49
2023-05-13T23:26:16.619Z,62.49
2023-05-13T23:28:43.366Z,62.03
2023-05-13T23:31:09.790Z,62.62
2023-05-13T23:33:36.420Z,62.30
2023-05-13T23:36:02.827Z,62.63
2023-05-13T23:38:29.422Z,63.08
2023-05-13T23:40:55.915Z,63.12
2023-05-13T23:43:22.638Z,63.26
2023-05-13T23:45:49.091Z,63.40
2023-05-13T23:48:15.701Z,63.26
2023-05-13T23:50:42.279Z,63.39
2023-05-13T23:53:08.935Z,63.44
2023-05-13T23:55:35.719Z,63.35
2023-05-13T23:58:02.384Z,64.30
